createdAt,value
2018-12-09T00:02:49.506Z,94.02
2018-12-09T00:07:52.781Z,94.96
2018-12-09T00:12:55.913Z,94.35
2018-12-09T00:17:59.071Z,96.42
2018-12-09T00:23:02.221Z,97.98
2018-12-09T00:28:05.568Z,98.84
2018-12-09T00:33:08.766Z,99.95
2018-12-09T00:38:14.761Z,98.82
2018-12-09T00:43:18.033Z,100.00
2018-12-09T00:48:21.206Z,100.00
2018-12-09T00:53:24.379Z,100.00
2018-12-09T00:58:27.573Z,100.00
2018-12-09T01:03:30.781Z,100.00
2018-12-09T01:08:33.991Z,100.00
2018-12-09T01:13:37.240Z,100.00
2018-12-09T01:18:40.376Z,100.00
2018-12-09T01:23:43.577Z,100.00
2018-12-09T01:28:46.873Z,100.00
2018-12-09T01:33:50.141Z,100.00
2018-12-09T01:38:53.276Z,100.00
2018-12-09T01:43:56.485Z,100.00
2018-12-09T01:48:59.661Z,100.00
2018-12-09T01:54:08.408Z,100.00
2018-12-09T01:59:11.585Z,100.00
2018-12-09T02:04:15.073Z,100.00
2018-12-09T02:09:18.263Z,100.00
2018-12-09T02:14:21.456Z,100.00
2018-12-09T02:19:24.668Z,100.00
2018-12-09T02:24:27.842Z,100.00
2018-12-09T02:29:31.031Z,100.00
2018-12-09T02:34:34.262Z,100.00
2018-12-09T02:39:37.426Z,100.00
2018-12-09T02:44:40.787Z,100.00
2018-12-09T02:49:43.940Z,100.00
2018-12-09T02:54:47.491Z,100.00
2018-12-09T02:59:50.778Z,100.00
2018-12-09T03:04:54.088Z,100.00
2018-12-09T03:09:57.250Z,100.00
2018-12-09T03:15:00.745Z,100.00
2018-12-09T03:20:04.085Z,100.00
2018-12-09T03:25:07.472Z,100.00
2018-12-09T03:30:10.797Z,100.00
2018-12-09T03:35:13.996Z,100.00
2018-12-09T03:40:17.165Z,100.00
2018-12-09T03:45:21.001Z,100.00
2018-12-09T03:50:24.140Z,98.92
2018-12-09T03:55:27.442Z,98.34
2018-12-09T04:00:30.585Z,98.13
2018-12-09T04:05:34.739Z,97.97
2018-12-09T04:10:38.481Z,95.64
2018-12-09T04:15:41.609Z,94.11
2018-12-09T04:20:45.252Z,93.33
2018-12-09T04:25:48.463Z,91.91
2018-12-09T04:30:51.665Z,91.57
2018-12-09T04:35:54.880Z,90.75
2018-12-09T04:40:58.254Z,89.81
2018-12-09T04:46:01.463Z,88.75
2018-12-09T04:51:04.872Z,87.73
2018-12-09T04:56:08.188Z,87.79
2018-12-09T05:01:11.424Z,87.34
2018-12-09T05:06:14.582Z,86.15
2018-12-09T05:11:17.817Z,85.94
2018-12-09T05:16:21.051Z,85.26
2018-12-09T05:21:24.312Z,84.23
2018-12-09T05:26:27.520Z,85.15
2018-12-09T05:31:31.129Z,84.35
2018-12-09T05:36:34.690Z,82.91
2018-12-09T05:41:38.109Z,82.54
2018-12-09T05:46:41.401Z,82.51
2018-12-09T05:51:45.469Z,82.48
2018-12-09T05:56:48.711Z,81.80
2018-12-09T06:01:54.115Z,80.79
2018-12-09T06:06:57.303Z,80.75
2018-12-09T06:12:00.455Z,82.34
2018-12-09T06:17:03.719Z,84.37
2018-12-09T06:22:07.158Z,84.92
2018-12-09T06:27:10.284Z,87.55
2018-12-09T06:32:13.573Z,88.51
2018-12-09T06:37:17.481Z,89.40
2018-12-09T06:42:20.676Z,91.24
2018-12-09T06:47:24.379Z,92.96
2018-12-09T06:52:27.551Z,94.33
2018-12-09T06:57:31.921Z,95.40
2018-12-09T07:02:35.299Z,95.64
2018-12-09T07:07:39.129Z,97.33
2018-12-09T07:12:42.349Z,97.06
2018-12-09T07:17:45.588Z,96.45
2018-12-09T07:22:48.852Z,96.69
2018-12-09T07:27:52.068Z,97.57
2018-12-09T07:32:55.268Z,96.74
2018-12-09T07:37:58.467Z,96.94
2018-12-09T07:43:01.741Z,96.86
2018-12-09T07:48:05.015Z,96.47
2018-12-09T07:53:08.242Z,96.38
2018-12-09T07:58:11.537Z,97.27
2018-12-09T08:03:14.735Z,95.43
2018-12-09T08:08:17.895Z,95.13
2018-12-09T08:13:21.171Z,93.91
2018-12-09T08:18:24.613Z,93.64
2018-12-09T08:23:35.477Z,95.59
2018-12-09T08:28:38.965Z,97.21
2018-12-09T08:33:42.076Z,97.94
2018-12-09T08:38:45.230Z,97.52
2018-12-09T08:43:48.390Z,97.77
2018-12-09T08:48:51.574Z,97.99
2018-12-09T08:53:54.700Z,96.70
2018-12-09T08:58:57.877Z,97.63
2018-12-09T09:04:01.061Z,96.03
2018-12-09T09:09:05.098Z,93.19
2018-12-09T09:14:08.617Z,90.83
2018-12-09T09:19:11.760Z,91.43
2018-12-09T09:24:14.896Z,89.61
2018-12-09T09:29:18.063Z,87.22
2018-12-09T09:34:21.352Z,85.02
2018-12-09T09:39:24.596Z,86.11
2018-12-09T09:44:27.949Z,86.37
2018-12-09T09:49:31.086Z,85.81
2018-12-09T09:54:34.202Z,86.39
2018-12-09T09:59:37.336Z,88.93
2018-12-09T10:04:40.496Z,89.73
2018-12-09T10:09:43.842Z,88.58
2018-12-09T10:14:47.011Z,88.93
2018-12-09T10:19:50.243Z,86.80
2018-12-09T10:24:53.460Z,86.20
2018-12-09T10:29:56.579Z,86.73
2018-12-09T10:34:59.777Z,86.60
2018-12-09T10:40:03.398Z,87.21
2018-12-09T10:45:06.786Z,86.50
2018-12-09T10:50:09.914Z,85.55
2018-12-09T10:55:14.333Z,84.01
2018-12-09T11:00:17.833Z,83.32
2018-12-09T11:05:21.190Z,81.98
2018-12-09T11:10:24.413Z,81.95
2018-12-09T11:15:27.650Z,83.25
2018-12-09T11:20:30.816Z,82.42
2018-12-09T11:25:33.998Z,81.45
2018-12-09T11:30:37.726Z,83.12
2018-12-09T11:35:40.906Z,83.35
2018-12-09T11:40:44.137Z,81.68
2018-12-09T11:45:47.406Z,82.79
2018-12-09T11:50:50.555Z,83.18
2018-12-09T11:55:53.808Z,83.42
2018-12-09T12:00:57.025Z,83.68
2018-12-09T12:06:02.265Z,83.79
2018-12-09T12:11:05.487Z,85.00
2018-12-09T12:16:08.739Z,84.77
2018-12-09T12:21:17.614Z,83.46
2018-12-09T12:26:20.937Z,84.38
2018-12-09T12:31:24.062Z,84.21
2018-12-09T12:36:27.272Z,83.84
2018-12-09T12:41:36.187Z,84.32
2018-12-09T12:46:39.403Z,84.08
2018-12-09T12:51:42.845Z,81.43
2018-12-09T12:56:46.219Z,81.08
2018-12-09T13:01:49.490Z,78.04
2018-12-09T13:06:52.899Z,78.32
2018-12-09T13:11:56.358Z,79.28
2018-12-09T13:17:08.648Z,80.09
2018-12-09T13:22:11.809Z,81.19
2018-12-09T13:27:15.038Z,81.10
2018-12-09T13:32:18.293Z,81.99
2018-12-09T13:37:21.378Z,82.29
2018-12-09T13:42:24.627Z,84.80
2018-12-09T13:47:28.206Z,84.51
2018-12-09T13:52:31.569Z,83.30
2018-12-09T13:57:34.704Z,84.86
2018-12-09T14:02:38.126Z,84.39
2018-12-09T14:07:42.771Z,83.30
2018-12-09T14:12:49.142Z,84.03
2018-12-09T14:17:52.519Z,85.50
2018-12-09T14:22:55.667Z,84.97
2018-12-09T14:27:58.883Z,85.02
2018-12-09T14:33:02.196Z,84.21
2018-12-09T14:38:05.325Z,84.42
2018-12-09T14:43:08.444Z,84.10
2018-12-09T14:48:11.666Z,85.62
2018-12-09T14:53:14.795Z,85.25
2018-12-09T14:58:17.978Z,85.28
2018-12-09T15:03:21.228Z,84.99
2018-12-09T15:08:24.531Z,84.55
2018-12-09T15:13:27.780Z,84.20
2018-12-09T15:18:30.942Z,84.30
2018-12-09T15:23:34.246Z,85.97
2018-12-09T15:28:42.962Z,86.38
2018-12-09T15:33:51.807Z,87.77
2018-12-09T15:39:00.547Z,89.68
2018-12-09T15:44:03.872Z,89.50
2018-12-09T15:49:07.054Z,90.24
2018-12-09T15:54:10.855Z,90.61
2018-12-09T15:59:14.386Z,91.13
2018-12-09T16:04:17.582Z,90.61
2018-12-09T16:09:22.316Z,90.82
2018-12-09T16:14:25.637Z,90.88
2018-12-09T16:19:28.998Z,90.00
2018-12-09T16:24:32.270Z,90.59
2018-12-09T16:29:35.479Z,91.60
2018-12-09T16:34:38.658Z,92.18
2018-12-09T16:39:41.885Z,93.06
2018-12-09T16:44:45.118Z,92.17
2018-12-09T16:49:49.230Z,92.34
2018-12-09T16:54:52.786Z,92.76
2018-12-09T16:59:56.110Z,92.20
2018-12-09T17:04:59.463Z,91.78
2018-12-09T17:10:03.142Z,89.87
2018-12-09T17:15:06.475Z,88.82
2018-12-09T17:20:15.234Z,89.57
2018-12-09T17:25:18.543Z,89.65
2018-12-09T17:30:21.812Z,89.24
2018-12-09T17:35:25.067Z,87.99
2018-12-09T17:40:28.401Z,87.93
2018-12-09T17:45:31.631Z,88.19
2018-12-09T17:50:34.878Z,88.35
2018-12-09T17:55:38.157Z,88.90
2018-12-09T18:00:41.320Z,89.54
2018-12-09T18:05:44.874Z,90.24
2018-12-09T18:10:48.107Z,89.59
2018-12-09T18:15:51.271Z,89.86
2018-12-09T18:20:54.459Z,89.52
2018-12-09T18:25:59.668Z,89.30
2018-12-09T18:31:03.148Z,89.67
2018-12-09T18:36:06.332Z,87.62
2018-12-09T18:41:09.621Z,86.94
2018-12-09T18:46:12.908Z,87.17
2018-12-09T18:51:17.071Z,86.38
2018-12-09T18:56:22.132Z,86.11
2018-12-09T19:01:26.183Z,85.93
2018-12-09T19:06:29.703Z,86.26
2018-12-09T19:11:35.035Z,85.90
2018-12-09T19:16:43.851Z,84.64
2018-12-09T19:21:49.333Z,84.53
2018-12-09T19:26:52.959Z,84.79
2018-12-09T19:31:57.423Z,84.39
2018-12-09T19:37:02.057Z,85.28
2018-12-09T19:42:07.043Z,82.58
2018-12-09T19:47:11.234Z,83.94
2018-12-09T19:52:15.399Z,83.14
2018-12-09T19:57:18.783Z,83.25
2018-12-09T20:02:28.047Z,82.37
2018-12-09T20:07:33.123Z,81.22
2018-12-09T20:12:38.769Z,81.11
2018-12-09T20:17:43.163Z,80.61
2018-12-09T20:22:47.667Z,80.60
2018-12-09T20:27:51.030Z,80.90
2018-12-09T20:32:57.376Z,81.31
2018-12-09T20:38:06.346Z,79.77
2018-12-09T20:43:09.769Z,80.44
2018-12-09T20:48:13.631Z,80.92
2018-12-09T20:53:17.301Z,82.33
2018-12-09T20:58:24.019Z,81.23
2018-12-09T21:03:28.877Z,81.48
2018-12-09T21:08:32.931Z,81.24
2018-12-09T21:13:36.871Z,80.68
2018-12-09T21:18:40.710Z,81.56
2018-12-09T21:23:44.281Z,81.78
2018-12-09T21:28:49.302Z,82.86
2018-12-09T21:33:56.910Z,82.37
2018-12-09T21:39:08.219Z,83.06
2018-12-09T21:44:12.847Z,83.22
2018-12-09T21:49:18.975Z,82.14
2018-12-09T21:54:25.592Z,80.96
2018-12-09T21:59:30.080Z,81.67
2018-12-09T22:04:33.228Z,80.48
2018-12-09T22:09:36.463Z,80.79
2018-12-09T22:14:39.598Z,80.48
2018-12-09T22:19:45.920Z,78.97
2018-12-09T22:24:49.342Z,79.13
2018-12-09T22:29:53.537Z,78.47
2018-12-09T22:34:56.964Z,78.96
2018-12-09T22:40:00.084Z,79.33
2018-12-09T22:45:03.888Z,78.39
2018-12-09T22:50:09.106Z,79.34
2018-12-09T22:55:12.341Z,79.79
2018-12-09T23:00:24.161Z,80.46
2018-12-09T23:05:27.634Z,81.62
2018-12-09T23:10:30.995Z,82.76
2018-12-09T23:15:34.210Z,83.08
2018-12-09T23:20:37.619Z,83.34
2018-12-09T23:25:41.383Z,82.87
2018-12-09T23:30:45.152Z,81.04
2018-12-09T23:35:48.457Z,82.04
2018-12-09T23:40:51.640Z,80.76
2018-12-09T23:45:55.741Z,81.76
2018-12-09T23:50:58.951Z,81.08
2018-12-09T23:56:02.259Z,80.29
